Time;durP1;ratioP1;P1;durP2;ratioP2;P2;SDS_P1;SDS_P2;PMS_P1;PMS_P2;Temp;Humidity;BMP_temperature;BMP_pressure;BME280_temperature;BME280_humidity;BME280_pressure;Samples;Min_cycle;Max_cycle;Signal;HPM_P1;HPM_P2
2021/11/16 00:01:24;;;;;;;29.33;19.55;;;8.00;99.90;;;;;;6251489;23;20228;-85
2021/11/16 00:03:51;;;;;;;27.23;19.48;;;8.00;99.90;;;;;;6251742;23;20181;-85
2021/11/16 00:06:18;;;;;;;26.75;18.23;;;8.00;99.90;;;;;;6251521;23;20201;-84
2021/11/16 00:08:45;;;;;;;32.33;20.35;;;8.00;99.90;;;;;;6251379;23;20672;-84
2021/11/16 00:11:13;;;;;;;28.08;20.35;;;8.00;99.90;;;;;;6253429;23;20237;-85
2021/11/16 00:13:40;;;;;;;26.85;18.63;;;8.00;99.90;;;;;;6252504;23;20187;-85
2021/11/16 00:16:07;;;;;;;31.48;19.08;;;8.00;99.90;;;;;;6252814;23;20224;-85
2021/11/16 00:18:35;;;;;;;29.95;19.35;;;8.00;99.90;;;;;;6252907;23;20179;-85
2021/11/16 00:21:05;;;;;;;32.25;21.35;;;8.00;99.90;;;;;;6252623;23;20178;-84
2021/11/16 00:23:35;;;;;;;29.83;19.35;;;7.90;99.90;;;;;;6262675;23;20199;-84
2021/11/16 00:26:05;;;;;;;28.30;19.38;;;7.90;99.90;;;;;;6271883;23;20197;-84
2021/11/16 00:28:34;;;;;;;29.40;20.42;;;7.90;99.90;;;;;;6254564;23;20177;-84
2021/11/16 00:31:01;;;;;;;28.50;21.35;;;7.90;99.90;;;;;;6253618;23;20509;-84
2021/11/16 00:33:28;;;;;;;30.98;21.50;;;7.90;99.90;;;;;;6253312;23;20195;-84
2021/11/16 00:35:56;;;;;;;32.08;20.00;;;7.90;99.90;;;;;;6252463;23;20572;-84
2021/11/16 00:38:25;;;;;;;26.25;19.05;;;8.00;99.90;;;;;;6253147;23;20215;-84
2021/11/16 00:40:52;;;;;;;28.10;19.50;;;8.00;99.90;;;;;;6253495;23;20235;-84
2021/11/16 00:43:19;;;;;;;29.58;18.83;;;8.00;99.90;;;;;;6252775;23;20193;-84
2021/11/16 00:45:48;;;;;;;25.17;18.73;;;8.10;99.90;;;;;;6252226;23;20185;-84
2021/11/16 00:48:17;;;;;;;26.25;19.73;;;8.10;99.90;;;;;;6253216;23;20181;-84
2021/11/16 00:50:46;;;;;;;28.20;18.90;;;8.10;99.90;;;;;;6252661;23;20204;-84
2021/11/16 00:53:13;;;;;;;23.38;17.83;;;8.00;99.90;;;;;;6253001;23;20508;-84
2021/11/16 00:55:40;;;;;;;26.40;17.80;;;8.00;99.90;;;;;;6252320;23;20665;-84
2021/11/16 00:58:06;;;;;;;28.17;18.50;;;8.00;99.90;;;;;;6252998;23;20184;-83
2021/11/16 01:00:33;;;;;;;28.92;20.05;;;8.00;99.90;;;;;;6252340;23;20176;-84
2021/11/16 01:03:01;;;;;;;25.00;18.23;;;8.00;99.90;;;;;;6252134;23;20200;-84
2021/11/16 01:05:28;;;;;;;27.65;17.83;;;7.90;99.90;;;;;;6251882;23;20184;-84
2021/11/16 01:07:55;;;;;;;28.60;20.02;;;7.90;99.90;;;;;;6251120;23;20682;-84
2021/11/16 01:10:23;;;;;;;24.48;19.10;;;7.80;99.90;;;;;;6251671;23;20637;-84
2021/11/16 01:12:51;;;;;;;26.50;18.40;;;7.60;99.90;;;;;;6251187;23;20173;-84
2021/11/16 01:15:19;;;;;;;28.67;19.15;;;7.60;99.90;;;;;;6251614;23;20176;-84
2021/11/16 01:17:46;;;;;;;28.73;19.42;;;7.60;99.90;;;;;;6251058;23;20205;-84
2021/11/16 01:20:16;;;;;;;34.10;20.55;;;7.40;99.90;;;;;;6251298;23;20181;-83
2021/11/16 01:22:44;;;;;;;25.52;18.92;;;7.40;99.90;;;;;;6251986;23;20200;-84
2021/11/16 01:25:12;;;;;;;29.77;17.98;;;7.40;99.90;;;;;;6253846;23;20188;-84
2021/11/16 01:27:39;;;;;;;29.85;20.42;;;7.20;99.90;;;;;;6252782;23;20199;-84
2021/11/16 01:30:08;;;;;;;25.95;18.75;;;7.30;99.90;;;;;;6253371;23;20185;-84
2021/11/16 01:32:38;;;;;;;24.77;17.75;;;7.40;99.90;;;;;;6253766;23;20180;-84
2021/11/16 01:35:06;;;;;;;27.95;18.75;;;7.40;99.90;;;;;;6253065;23;20181;-84
2021/11/16 01:37:34;;;;;;;26.00;17.98;;;7.40;99.90;;;;;;6253829;23;20205;-84
2021/11/16 01:40:03;;;;;;;27.13;19.25;;;7.50;99.90;;;;;;6253684;23;20181;-84
2021/11/16 01:42:30;;;;;;;29.00;17.02;;;7.50;99.90;;;;;;6253032;23;20181;-84
2021/11/16 01:44:57;;;;;;;29.83;18.48;;;7.40;99.90;;;;;;6253425;23;20264;-84
2021/11/16 01:47:23;;;;;;;31.88;18.50;;;7.40;99.90;;;;;;6253614;23;20227;-84
2021/11/16 01:49:50;;;;;;;26.63;17.70;;;7.50;99.90;;;;;;6253824;23;20188;-84
2021/11/16 01:52:17;;;;;;;24.38;17.80;;;7.30;99.90;;;;;;6253606;23;20177;-84
2021/11/16 01:54:45;;;;;;;25.90;17.95;;;7.40;99.90;;;;;;6254111;23;20511;-84
2021/11/16 01:57:12;;;;;;;28.15;19.20;;;7.30;99.90;;;;;;6254039;23;20251;-84
2021/11/16 01:59:39;;;;;;;30.30;20.15;;;7.40;99.90;;;;;;6253220;23;20512;-84
2021/11/16 02:02:07;;;;;;;28.10;19.45;;;7.50;99.90;;;;;;6252858;23;20185;-84
2021/11/16 02:04:34;;;;;;;25.90;18.80;;;7.40;99.90;;;;;;6253352;23;20204;-84
2021/11/16 02:07:01;;;;;;;29.27;19.55;;;7.50;99.90;;;;;;6252460;23;20197;-84
2021/11/16 02:09:28;;;;;;;31.67;20.77;;;7.30;99.90;;;;;;6253474;23;20184;-84
2021/11/16 02:11:57;;;;;;;29.15;18.00;;;7.40;99.90;;;;;;6252524;23;20181;-84
2021/11/16 02:14:23;;;;;;;26.45;17.85;;;7.30;99.90;;;;;;6252616;23;20176;-84
2021/11/16 02:16:50;;;;;;;27.88;18.75;;;7.10;99.90;;;;;;6252695;23;20513;-84
2021/11/16 02:19:20;;;;;;;26.88;19.60;;;7.10;99.90;;;;;;6252870;23;20638;-84
2021/11/16 02:21:48;;;;;;;34.88;22.38;;;7.10;99.90;;;;;;6252147;23;20185;-83
2021/11/16 02:24:16;;;;;;;29.02;19.02;;;7.10;99.90;;;;;;6252584;23;20203;-84
2021/11/16 02:26:43;;;;;;;24.77;18.95;;;7.20;99.90;;;;;;6252905;23;20255;-84
2021/11/16 02:29:09;;;;;;;24.30;18.90;;;7.20;99.90;;;;;;6252985;23;20187;-84
2021/11/16 02:31:37;;;;;;;25.08;18.30;;;7.30;99.90;;;;;;6252381;23;20515;-84
2021/11/16 02:34:06;;;;;;;31.55;17.60;;;7.20;99.90;;;;;;6251623;23;20177;-84
2021/11/16 02:36:34;;;;;;;28.85;18.33;;;7.30;99.90;;;;;;6252582;23;20205;-84
2021/11/16 02:39:04;;;;;;;24.90;16.10;;;7.30;99.90;;;;;;6253054;23;20236;-85
2021/11/16 02:41:34;;;;;;;25.77;18.35;;;7.30;99.90;;;;;;6252088;23;20173;-85
2021/11/16 02:44:02;;;;;;;29.30;19.70;;;7.30;99.90;;;;;;6251762;23;20272;-85
2021/11/16 02:46:30;;;;;;;27.00;20.00;;;7.30;99.90;;;;;;6252098;23;20628;-87
2021/11/16 02:48:57;;;;;;;26.38;19.08;;;7.30;99.90;;;;;;6252651;23;20169;-85
2021/11/16 02:51:24;;;;;;;25.73;19.92;;;7.30;99.90;;;;;;6252804;23;20173;-85
2021/11/16 02:53:52;;;;;;;25.17;18.13;;;7.40;99.90;;;;;;6252441;23;20552;-85
2021/11/16 02:56:20;;;;;;;30.73;19.00;;;7.40;99.90;;;;;;6251908;23;20602;-83
2021/11/16 02:58:47;;;;;;;25.88;19.02;;;7.30;99.90;;;;;;6252399;23;20181;-85
2021/11/16 03:01:19;;;;;;;26.50;20.13;;;7.20;99.90;;;;;;6252300;23;20173;-85
2021/11/16 03:03:46;;;;;;;26.55;16.23;;;7.30;99.90;;;;;;6252250;23;20189;-84
2021/11/16 03:06:14;;;;;;;24.80;17.58;;;7.30;99.90;;;;;;6252968;23;20762;-84
2021/11/16 03:08:42;;;;;;;29.02;19.48;;;7.30;99.90;;;;;;6251942;23;20265;-87
2021/11/16 03:11:11;;;;;;;27.77;16.85;;;7.20;99.90;;;;;;6252701;23;20181;-86
2021/11/16 03:13:40;;;;;;;28.35;17.75;;;7.20;99.90;;;;;;6252578;23;20173;-85
2021/11/16 03:16:09;;;;;;;31.13;19.38;;;7.10;99.90;;;;;;6252883;23;20546;-84
2021/11/16 03:18:36;;;;;;;24.70;17.35;;;7.10;99.90;;;;;;6255712;23;20188;-83
2021/11/16 03:21:03;;;;;;;25.63;18.80;;;7.10;99.90;;;;;;6273946;23;20237;-83
2021/11/16 03:23:30;;;;;;;27.30;20.63;;;7.10;99.90;;;;;;6272882;23;20201;-85
2021/11/16 03:25:59;;;;;;;28.77;19.38;;;7.20;99.90;;;;;;6272554;23;20191;-83
2021/11/16 03:28:29;;;;;;;29.60;19.05;;;7.00;99.90;;;;;;6272187;23;20182;-90
2021/11/16 03:31:02;;;;;;;26.75;18.60;;;6.90;99.90;;;;;;6258012;23;20170;-85
2021/11/16 03:33:29;;;;;;;32.17;20.83;;;6.80;99.90;;;;;;6253166;23;20188;-85
2021/11/16 03:35:55;;;;;;;28.60;19.80;;;6.70;99.90;;;;;;6253085;23;20220;-85
2021/11/16 03:38:23;;;;;;;27.90;19.58;;;6.80;99.90;;;;;;6253406;23;20161;-85
2021/11/16 03:40:53;;;;;;;23.23;16.90;;;6.70;99.90;;;;;;6252243;23;20181;-86
2021/11/16 03:43:21;;;;;;;36.10;22.65;;;6.40;99.90;;;;;;6252364;23;20185;-85
2021/11/16 03:45:49;;;;;;;30.65;19.15;;;6.30;99.90;;;;;;6251908;23;20181;-84
2021/11/16 03:48:17;;;;;;;31.15;18.95;;;6.40;99.90;;;;;;6252459;23;20206;-85
2021/11/16 03:50:44;;;;;;;28.20;18.65;;;6.40;99.90;;;;;;6252612;23;20629;-86
2021/11/16 03:53:11;;;;;;;34.08;20.00;;;6.50;99.90;;;;;;6252288;23;20174;-85
2021/11/16 03:55:41;;;;;;;28.75;18.33;;;6.60;99.90;;;;;;6252172;23;20176;-84
2021/11/16 03:58:09;;;;;;;27.17;17.15;;;6.70;99.90;;;;;;6252425;23;20181;-85
2021/11/16 04:00:39;;;;;;;25.60;18.80;;;6.70;99.90;;;;;;6251988;23;20285;-85
2021/11/16 04:03:07;;;;;;;25.73;18.00;;;6.80;99.90;;;;;;6252289;23;20177;-85
2021/11/16 04:05:36;;;;;;;30.60;18.70;;;6.70;99.90;;;;;;6251911;23;20513;-85
2021/11/16 04:08:03;;;;;;;27.38;17.23;;;6.60;99.90;;;;;;6251735;23;20279;-85
2021/11/16 04:10:30;;;;;;;24.25;17.67;;;6.60;99.90;;;;;;6252733;23;20206;-84
2021/11/16 04:12:57;;;;;;;24.98;17.73;;;6.80;99.90;;;;;;6252308;23;20582;-83
2021/11/16 04:15:26;;;;;;;32.05;19.42;;;6.80;99.90;;;;;;6263486;23;20219;-86
2021/11/16 04:17:55;;;;;;;26.55;17.95;;;6.90;99.90;;;;;;6273414;23;20257;-86
2021/11/16 04:20:24;;;;;;;27.15;19.42;;;7.00;99.90;;;;;;6262118;23;20184;-85
2021/11/16 04:22:53;;;;;;;30.20;19.25;;;7.00;99.90;;;;;;6249898;23;20179;-87
2021/11/16 04:25:20;;;;;;;29.75;19.52;;;7.00;99.90;;;;;;6248873;23;20197;-85
2021/11/16 04:27:48;;;;;;;25.70;18.38;;;7.00;99.90;;;;;;6249786;23;20205;-85
2021/11/16 04:30:17;;;;;;;29.05;19.65;;;6.90;99.90;;;;;;6249675;23;20180;-84
2021/11/16 04:32:44;;;;;;;34.03;19.05;;;6.90;99.90;;;;;;6249289;23;20181;-85
2021/11/16 04:35:14;;;;;;;29.08;18.20;;;6.90;99.90;;;;;;6249836;23;20179;-85
2021/11/16 04:37:42;;;;;;;26.95;17.83;;;6.80;99.90;;;;;;6249458;23;20209;-84
2021/11/16 04:40:14;;;;;;;30.75;18.52;;;6.80;99.90;;;;;;6250029;23;20205;-85
2021/11/16 04:42:41;;;;;;;28.73;19.20;;;6.60;99.90;;;;;;6249173;23;20169;-83
2021/11/16 04:45:11;;;;;;;29.38;18.58;;;6.40;99.90;;;;;;6249552;23;20659;-86
2021/11/16 04:47:45;;;;;;;28.65;20.10;;;6.40;99.90;;;;;;6249672;23;20267;-85
2021/11/16 04:50:18;;;;;;;28.98;18.50;;;6.40;99.90;;;;;;6249676;23;20215;-86
2021/11/16 04:52:48;;;;;;;28.98;18.13;;;6.40;99.90;;;;;;6223191;23;20497;-85
2021/11/16 04:55:43;;;;;;;32.42;19.63;;;6.20;99.90;;;;;;6249311;23;20177;-85
2021/11/16 05:03:42;;;;;;;32.92;20.17;;;6.10;99.90;;;;;;6249685;23;20231;-84
2021/11/16 05:06:09;;;;;;;26.60;18.67;;;6.10;99.90;;;;;;6249286;23;20200;-85
2021/11/16 05:08:39;;;;;;;29.33;18.33;;;6.10;99.90;;;;;;6249522;23;20236;-86
2021/11/16 05:11:07;;;;;;;32.63;20.48;;;5.90;99.90;;;;;;6249455;23;20177;-85
2021/11/16 05:13:35;;;;;;;30.00;19.63;;;6.00;99.90;;;;;;6249465;23;20252;-84
2021/11/16 05:16:02;;;;;;;31.35;17.38;;;6.10;99.90;;;;;;6249721;23;20722;-84
2021/11/16 05:18:28;;;;;;;32.42;20.70;;;6.20;99.90;;;;;;6249884;23;20503;-84
2021/11/16 05:20:55;;;;;;;34.35;18.50;;;6.20;99.90;;;;;;6249995;23;20708;-85
2021/11/16 05:23:22;;;;;;;28.33;19.05;;;6.10;99.90;;;;;;6249415;23;20261;-83
2021/11/16 05:25:52;;;;;;;25.27;15.48;;;6.10;99.90;;;;;;6249296;23;20173;-86
2021/11/16 05:28:22;;;;;;;26.45;19.38;;;6.20;99.90;;;;;;6249812;23;20177;-85
2021/11/16 05:30:49;;;;;;;30.65;17.83;;;6.20;99.90;;;;;;6249769;23;20179;-84
2021/11/16 05:33:16;;;;;;;30.20;19.95;;;6.30;99.90;;;;;;6251521;23;20193;-84
2021/11/16 05:35:43;;;;;;;23.27;15.88;;;6.30;99.90;;;;;;6252284;23;20180;-84
2021/11/16 05:38:22;;;;;;;26.92;17.05;;;6.30;99.90;;;;;;6252923;23;20173;-85
2021/11/16 05:40:48;;;;;;;33.20;17.83;;;6.30;99.90;;;;;;6253214;23;20161;-85
2021/11/16 05:43:15;;;;;;;25.17;16.85;;;6.30;99.90;;;;;;6251715;23;20191;-84
2021/11/16 05:45:43;;;;;;;25.63;17.73;;;6.20;99.90;;;;;;6252391;23;20197;-84
2021/11/16 05:48:10;;;;;;;23.45;16.83;;;6.20;99.90;;;;;;6252976;23;20180;-84
2021/11/16 05:50:37;;;;;;;29.20;16.60;;;6.20;99.90;;;;;;6253002;23;20184;-84
2021/11/16 05:53:05;;;;;;;27.98;16.95;;;6.10;99.90;;;;;;6252255;23;20487;-84
2021/11/16 05:55:31;;;;;;;26.27;16.52;;;6.00;99.90;;;;;;6253084;23;20174;-84
2021/11/16 05:57:58;;;;;;;25.45;15.82;;;5.90;99.90;;;;;;6253588;23;20208;-84
2021/11/16 06:00:25;;;;;;;22.70;15.60;;;5.80;99.90;;;;;;6251985;23;20182;-84
2021/11/16 06:02:54;;;;;;;24.13;18.52;;;5.80;99.90;;;;;;6251468;23;20515;-84
2021/11/16 06:05:21;;;;;;;27.23;16.95;;;5.70;99.90;;;;;;6251740;23;20200;-84
2021/11/16 06:07:48;;;;;;;29.98;18.92;;;5.70;99.90;;;;;;6252594;23;20205;-84
2021/11/16 06:10:15;;;;;;;21.13;14.35;;;5.70;99.90;;;;;;6254557;23;20181;-84
2021/11/16 06:12:43;;;;;;;18.95;14.07;;;5.70;99.90;;;;;;6253477;23;20811;-84
2021/11/16 06:15:10;;;;;;;26.98;14.63;;;5.70;99.90;;;;;;6253992;23;20211;-84
2021/11/16 06:17:41;;;;;;;24.38;14.75;;;5.70;99.90;;;;;;6254336;23;20205;-84
2021/11/16 06:20:11;;;;;;;28.02;16.88;;;5.80;99.90;;;;;;6254823;23;20179;-84
2021/11/16 06:22:38;;;;;;;22.42;15.18;;;5.70;99.90;;;;;;6253965;23;20165;-83
2021/11/16 06:25:05;;;;;;;21.88;14.35;;;5.70;99.90;;;;;;6254548;23;20201;-84
2021/11/16 06:27:32;;;;;;;25.08;15.38;;;5.70;99.90;;;;;;6253750;23;20200;-84
2021/11/16 06:30:00;;;;;;;25.05;16.00;;;5.80;99.90;;;;;;6253920;23;20181;-85
2021/11/16 06:32:27;;;;;;;16.98;14.30;;;5.90;99.90;;;;;;6253490;23;20188;-83
2021/11/16 06:34:53;;;;;;;19.33;11.80;;;6.00;99.90;;;;;;6254559;23;20177;-84
2021/11/16 06:37:21;;;;;;;19.15;13.02;;;6.00;99.90;;;;;;6253339;23;20213;-84
2021/11/16 06:39:48;;;;;;;21.50;13.63;;;5.90;99.90;;;;;;6254522;23;20598;-84
2021/11/16 06:42:15;;;;;;;21.40;14.25;;;5.90;99.90;;;;;;6253872;23;20183;-84
2021/11/16 06:44:43;;;;;;;20.77;13.20;;;5.80;99.90;;;;;;6253784;23;20201;-84
2021/11/16 06:47:12;;;;;;;19.45;14.38;;;5.90;99.90;;;;;;6253631;23;20207;-84
2021/11/16 06:49:40;;;;;;;19.38;14.85;;;6.00;99.90;;;;;;6254132;23;20498;-84
2021/11/16 06:52:08;;;;;;;18.88;12.70;;;5.90;99.90;;;;;;6253294;23;20192;-83
2021/11/16 06:54:36;;;;;;;14.98;11.82;;;6.00;99.90;;;;;;6253693;23;20176;-83
2021/11/16 06:57:03;;;;;;;19.48;14.18;;;6.00;99.90;;;;;;6253104;23;20676;-84
2021/11/16 06:59:30;;;;;;;21.33;15.60;;;6.10;99.90;;;;;;6253399;23;20220;-83
2021/11/16 07:01:57;;;;;;;21.00;13.88;;;6.10;99.90;;;;;;6253351;23;20184;-83
2021/11/16 07:04:24;;;;;;;19.98;13.20;;;6.10;99.90;;;;;;6253590;23;20197;-83
2021/11/16 07:06:53;;;;;;;24.13;17.58;;;6.10;99.90;;;;;;6256667;23;20211;-81
2021/11/16 07:09:21;;;;;;;18.10;13.07;;;6.00;99.90;;;;;;6256132;23;20177;-82
2021/11/16 07:11:51;;;;;;;23.80;15.38;;;6.10;99.90;;;;;;6256922;23;20738;-83
2021/11/16 07:14:20;;;;;;;20.58;12.85;;;6.20;99.90;;;;;;6259258;23;20575;-82
2021/11/16 07:17:00;;;;;;;16.23;14.32;;;6.20;99.90;;;;;;6260757;23;20233;-83
2021/11/16 07:19:33;;;;;;;21.17;14.45;;;6.20;99.90;;;;;;6258653;23;20605;-82
2021/11/16 07:22:03;;;;;;;19.52;13.98;;;6.20;99.90;;;;;;6257760;23;20176;-82
2021/11/16 07:24:32;;;;;;;23.67;14.77;;;6.30;99.90;;;;;;6258769;23;20181;-83
2021/11/16 07:27:02;;;;;;;24.60;16.85;;;6.20;99.90;;;;;;6256845;23;20264;-83
2021/11/16 07:29:35;;;;;;;20.13;15.23;;;6.20;99.90;;;;;;6257204;23;20181;-83
2021/11/16 07:32:03;;;;;;;23.63;14.00;;;6.30;99.90;;;;;;6257692;23;20238;-83
2021/11/16 07:34:31;;;;;;;18.58;13.57;;;6.20;99.90;;;;;;6255973;23;20506;-83
2021/11/16 07:37:00;;;;;;;22.17;14.10;;;6.20;99.90;;;;;;6256254;23;20853;-82
2021/11/16 07:39:28;;;;;;;24.10;16.23;;;5.90;99.90;;;;;;6256632;23;20184;-83
2021/11/16 07:42:05;;;;;;;24.52;15.90;;;6.00;99.90;;;;;;6255921;23;20185;-83
2021/11/16 07:44:32;;;;;;;23.05;14.82;;;6.10;99.90;;;;;;6258079;23;20181;-83
2021/11/16 07:46:59;;;;;;;22.05;15.60;;;6.00;99.90;;;;;;6256111;23;20689;-83
2021/11/16 07:49:27;;;;;;;19.67;15.07;;;6.20;99.90;;;;;;6257756;23;20188;-83
2021/11/16 07:51:56;;;;;;;22.55;14.02;;;6.20;99.90;;;;;;6259270;23;20187;-83
2021/11/16 07:54:24;;;;;;;22.75;14.50;;;6.20;99.90;;;;;;6257691;23;20177;-82
2021/11/16 07:56:51;;;;;;;23.75;14.60;;;6.20;99.90;;;;;;6257289;23;20207;-83
2021/11/16 07:59:23;;;;;;;20.10;15.77;;;6.00;99.90;;;;;;6256856;23;20191;-83
2021/11/16 08:01:57;;;;;;;21.83;16.15;;;5.70;99.90;;;;;;6256632;23;20166;-80
2021/11/16 08:04:28;;;;;;;27.83;14.60;;;5.70;99.90;;;;;;6257726;23;20167;-83
2021/11/16 08:07:03;;;;;;;26.58;17.20;;;5.70;99.90;;;;;;6256813;23;20498;-85
2021/11/16 08:09:42;;;;;;;26.38;15.45;;;5.80;99.90;;;;;;6258261;23;20165;-81
2021/11/16 08:12:21;;;;;;;24.65;14.20;;;5.70;99.90;;;;;;6262242;23;20165;-81
2021/11/16 08:14:59;;;;;;;28.25;14.93;;;5.60;99.90;;;;;;6267312;22;20220;-83
2021/11/16 08:17:27;;;;;;;19.25;14.50;;;5.50;99.90;;;;;;6255972;23;20203;-83
2021/11/16 08:19:57;;;;;;;28.60;15.75;;;5.30;99.90;;;;;;6255108;23;20177;-83
2021/11/16 08:22:24;;;;;;;25.77;16.00;;;5.30;99.90;;;;;;6253962;23;20166;-83
2021/11/16 08:24:51;;;;;;;20.27;14.32;;;5.20;99.90;;;;;;6254773;23;20201;-82
2021/11/16 08:27:20;;;;;;;24.15;17.67;;;5.20;99.90;;;;;;6255477;23;20317;-84
2021/11/16 08:29:52;;;;;;;25.38;15.00;;;5.20;99.90;;;;;;6255320;23;20182;-83
2021/11/16 08:32:22;;;;;;;25.60;15.63;;;5.20;99.90;;;;;;6253997;23;20166;-84
2021/11/16 08:34:52;;;;;;;31.77;15.55;;;5.20;99.90;;;;;;6255464;23;20188;-84
2021/11/16 08:37:20;;;;;;;30.20;15.90;;;5.20;99.90;;;;;;6253901;23;20240;-82
2021/11/16 08:39:53;;;;;;;22.13;13.65;;;5.30;99.90;;;;;;6247476;23;20192;-84
2021/11/16 08:42:23;;;;;;;23.83;14.20;;;5.60;99.90;;;;;;6247920;23;20161;-82
2021/11/16 08:44:56;;;;;;;26.23;15.50;;;5.80;99.90;;;;;;6247864;23;20508;-84
2021/11/16 08:47:27;;;;;;;22.95;15.43;;;5.90;99.90;;;;;;6247768;23;20259;-81
2021/11/16 08:49:55;;;;;;;27.13;16.60;;;6.00;99.90;;;;;;6247496;23;20617;-81
2021/11/16 08:52:26;;;;;;;23.02;15.48;;;6.10;99.90;;;;;;6247353;23;20188;-81
2021/11/16 08:55:00;;;;;;;27.58;15.35;;;6.10;99.90;;;;;;6247260;23;20556;-82
2021/11/16 08:57:30;;;;;;;22.40;14.43;;;6.30;99.90;;;;;;6220789;23;20227;-81
2021/11/16 08:59:59;;;;;;;25.33;14.48;;;6.40;99.90;;;;;;6246833;23;20173;-83
2021/11/16 09:02:29;;;;;;;25.50;14.93;;;6.40;99.90;;;;;;6246720;23;20174;-82
2021/11/16 09:04:56;;;;;;;20.10;12.57;;;6.50;99.90;;;;;;6246967;23;20524;-85
2021/11/16 09:07:28;;;;;;;18.02;13.32;;;6.50;99.90;;;;;;6247119;23;20529;-82
2021/11/16 09:10:02;;;;;;;16.48;11.43;;;6.50;99.90;;;;;;6247572;23;20177;-81
2021/11/16 09:12:43;;;;;;;19.55;11.88;;;6.50;99.90;;;;;;6247493;23;20169;-83
2021/11/16 09:15:15;;;;;;;19.45;11.60;;;6.30;99.90;;;;;;6246810;23;20173;-81
2021/11/16 09:17:42;;;;;;;20.70;12.90;;;6.40;99.90;;;;;;6247430;23;20201;-80
2021/11/16 09:20:22;;;;;;;16.65;11.05;;;6.50;99.90;;;;;;6248140;23;20521;-82
2021/11/16 09:22:51;;;;;;;21.27;11.27;;;6.50;99.90;;;;;;6247459;23;20156;-83
2021/11/16 09:25:29;;;;;;;13.88;9.98;;;6.50;99.90;;;;;;6247206;23;20280;-81
2021/11/16 09:28:04;;;;;;;16.65;12.15;;;6.70;99.90;;;;;;6247362;23;20326;-82
2021/11/16 09:30:35;;;;;;;14.80;9.82;;;6.70;99.90;;;;;;6247451;23;20165;-81
2021/11/16 09:33:05;;;;;;;17.20;11.90;;;6.70;99.90;;;;;;6247590;23;20165;-83
2021/11/16 09:35:58;;;;;;;12.77;8.82;;;6.80;99.90;;;;;;6247576;23;20168;-82
2021/11/16 09:38:51;;;;;;;18.70;9.73;;;6.90;99.90;;;;;;6218601;23;20678;-81
2021/11/16 09:41:30;;;;;;;14.55;10.60;;;6.50;99.90;;;;;;6247574;23;20173;-81
2021/11/16 09:43:59;;;;;;;16.25;8.85;;;6.40;99.90;;;;;;6258229;23;20173;-84
2021/11/16 09:46:28;;;;;;;16.23;10.15;;;6.40;99.90;;;;;;6258645;23;20211;-84
2021/11/16 09:48:59;;;;;;;14.05;9.18;;;6.40;99.90;;;;;;6259416;23;20548;-85
2021/11/16 09:51:27;;;;;;;16.42;9.88;;;6.40;99.90;;;;;;6259369;23;20254;-85
2021/11/16 09:54:03;;;;;;;13.57;9.48;;;6.40;99.90;;;;;;6259425;23;20177;-85
2021/11/16 09:56:31;;;;;;;15.23;9.80;;;6.40;99.90;;;;;;6260410;23;20263;-85
2021/11/16 09:59:00;;;;;;;13.35;9.35;;;6.60;99.90;;;;;;6259264;23;20181;-85
2021/11/16 10:01:32;;;;;;;11.63;8.95;;;6.70;99.90;;;;;;6259677;23;20633;-85
2021/11/16 10:04:15;;;;;;;15.05;9.35;;;6.60;99.90;;;;;;6259005;23;20225;-85
2021/11/16 10:06:43;;;;;;;11.27;7.85;;;6.70;99.90;;;;;;6258784;23;20231;-85
2021/11/16 10:09:11;;;;;;;13.57;9.38;;;6.80;99.90;;;;;;6258832;23;20180;-85
2021/11/16 10:11:42;;;;;;;13.35;8.10;;;6.90;99.90;;;;;;6259576;23;20188;-83
2021/11/16 10:14:14;;;;;;;12.95;9.00;;;6.90;99.90;;;;;;6260514;23;20246;-85
2021/11/16 10:16:44;;;;;;;11.32;7.45;;;6.80;99.90;;;;;;6260101;23;20215;-85
2021/11/16 10:19:11;;;;;;;11.80;8.60;;;6.80;99.90;;;;;;6266425;23;20240;-82
2021/11/16 10:21:39;;;;;;;8.35;6.25;;;6.80;99.90;;;;;;6274444;23;20187;-79
2021/11/16 10:24:29;;;;;;;11.23;6.68;;;6.90;99.90;;;;;;6274277;23;20203;-80
2021/11/16 10:26:59;;;;;;;10.75;7.15;;;6.80;99.90;;;;;;6273669;22;20189;-81
2021/11/16 10:29:26;;;;;;;12.02;6.53;;;6.90;99.90;;;;;;6273142;23;20173;-86
2021/11/16 10:31:54;;;;;;;8.68;6.53;;;6.90;99.90;;;;;;6259014;23;20185;-81
2021/11/16 10:34:38;;;;;;;15.00;7.40;;;6.90;99.90;;;;;;6259174;23;20259;-84
2021/11/16 10:37:06;;;;;;;11.90;7.97;;;6.90;99.90;;;;;;6259348;23;20201;-85
2021/11/16 10:39:34;;;;;;;10.25;7.40;;;6.60;99.90;;;;;;6258411;23;20177;-83
2021/11/16 10:42:04;;;;;;;12.82;7.93;;;6.60;99.90;;;;;;6251466;23;20184;-83
2021/11/16 10:44:32;;;;;;;13.90;7.30;;;6.70;99.90;;;;;;6251822;23;20177;-82
2021/11/16 10:47:02;;;;;;;11.73;7.72;;;6.70;99.90;;;;;;6251618;23;20215;-83
2021/11/16 10:49:30;;;;;;;12.02;7.32;;;6.50;99.90;;;;;;6251685;23;20181;-82
2021/11/16 10:51:57;;;;;;;16.40;8.07;;;6.40;99.90;;;;;;6251830;23;20204;-82
2021/11/16 10:54:23;;;;;;;12.27;7.68;;;6.50;99.90;;;;;;6253990;23;20181;-82
2021/11/16 10:56:58;;;;;;;13.07;8.93;;;6.60;99.90;;;;;;6256438;23;20204;-83
2021/11/16 10:59:31;;;;;;;15.90;8.93;;;6.50;99.90;;;;;;6252647;23;20192;-83
2021/11/16 11:02:00;;;;;;;10.57;8.10;;;6.80;99.90;;;;;;6251717;23;20161;-84
2021/11/16 11:04:29;;;;;;;9.95;8.65;;;6.90;99.90;;;;;;6251683;23;20251;-83
2021/11/16 11:07:08;;;;;;;13.02;8.82;;;6.80;99.90;;;;;;6251266;23;20201;-83
2021/11/16 11:09:35;;;;;;;14.13;7.60;;;6.80;99.90;;;;;;6251712;23;20165;-83
2021/11/16 11:12:01;;;;;;;12.18;7.70;;;6.70;99.90;;;;;;6251114;23;20200;-83
2021/11/16 11:14:35;;;;;;;14.82;9.10;;;6.80;99.90;;;;;;6251691;23;20181;-83
2021/11/16 11:17:06;;;;;;;7.57;6.35;;;6.70;99.90;;;;;;6251020;23;20224;-83
2021/11/16 11:19:36;;;;;;;15.02;9.70;;;6.60;99.90;;;;;;6251163;23;20500;-83
2021/11/16 11:22:11;;;;;;;12.10;7.80;;;6.50;99.90;;;;;;6250810;23;20264;-83
2021/11/16 11:24:40;;;;;;;10.35;5.60;;;6.60;99.90;;;;;;6251441;23;20165;-83
2021/11/16 11:27:18;;;;;;;13.02;7.32;;;6.70;99.90;;;;;;6250559;23;20223;-82
2021/11/16 11:29:51;;;;;;;7.80;6.00;;;6.90;99.90;;;;;;6251139;23;20657;-83
2021/11/16 11:32:22;;;;;;;10.40;7.57;;;7.10;99.90;;;;;;6250057;23;20166;-83
2021/11/16 11:34:51;;;;;;;7.22;5.82;;;7.20;99.90;;;;;;6251133;23;20161;-82
2021/11/16 11:37:23;;;;;;;7.55;5.85;;;7.20;99.90;;;;;;6250335;23;20696;-82
2021/11/16 11:39:57;;;;;;;6.53;5.65;;;7.30;99.90;;;;;;6251174;23;20227;-83
2021/11/16 11:42:24;;;;;;;9.23;6.75;;;7.30;99.90;;;;;;6250110;23;20188;-82
2021/11/16 11:44:57;;;;;;;8.23;6.25;;;7.30;99.90;;;;;;6250752;23;20177;-82
2021/11/16 11:47:29;;;;;;;9.10;6.43;;;7.40;99.90;;;;;;6252624;23;20201;-83
2021/11/16 11:49:58;;;;;;;7.03;5.00;;;7.50;99.90;;;;;;6254087;23;20157;-83
2021/11/16 11:52:25;;;;;;;6.75;5.15;;;7.50;99.90;;;;;;6251785;23;20649;-83
2021/11/16 11:54:52;;;;;;;8.93;5.93;;;7.50;99.90;;;;;;6250865;23;20184;-83
2021/11/16 11:57:19;;;;;;;7.25;5.78;;;7.50;99.90;;;;;;6250590;23;20220;-82
2021/11/16 11:59:47;;;;;;;6.60;5.85;;;7.60;99.90;;;;;;6250836;23;20178;-83
2021/11/16 12:02:17;;;;;;;10.07;6.50;;;7.70;99.90;;;;;;6250769;23;20188;-83
2021/11/16 12:04:46;;;;;;;6.85;6.00;;;7.60;99.90;;;;;;6250328;23;20609;-83
2021/11/16 12:07:13;;;;;;;7.68;5.55;;;7.50;99.90;;;;;;6262079;23;20185;-82
2021/11/16 12:09:40;;;;;;;7.97;6.32;;;7.50;99.90;;;;;;6273749;23;20176;-82
2021/11/16 12:12:07;;;;;;;6.60;5.72;;;7.60;99.90;;;;;;6262068;23;20621;-83
2021/11/16 12:14:45;;;;;;;6.60;4.97;;;7.60;99.90;;;;;;6251041;23;20181;-83
2021/11/16 12:17:13;;;;;;;6.53;5.55;;;7.80;99.90;;;;;;6256638;23;20197;-84
2021/11/16 12:19:48;;;;;;;9.00;6.80;;;7.80;99.90;;;;;;6256944;23;20185;-84
2021/11/16 12:22:19;;;;;;;9.73;6.53;;;7.80;99.90;;;;;;6255712;23;20164;-83
2021/11/16 12:24:47;;;;;;;9.40;6.30;;;7.80;99.90;;;;;;6255747;23;20172;-85
2021/11/16 12:27:16;;;;;;;7.50;5.90;;;7.80;99.90;;;;;;6255677;23;20228;-84
2021/11/16 12:29:45;;;;;;;7.88;5.80;;;7.70;99.90;;;;;;6255750;23;20181;-85
2021/11/16 12:32:15;;;;;;;7.47;6.25;;;7.80;99.90;;;;;;6254999;23;20526;-83
2021/11/16 12:34:48;;;;;;;9.05;6.10;;;7.90;99.90;;;;;;6255802;23;20166;-84
2021/11/16 12:37:42;;;;;;;10.45;5.07;;;7.90;99.90;;;;;;6254968;23;20261;-84
2021/11/16 12:40:12;;;;;;;5.32;4.88;;;8.00;99.90;;;;;;6255205;23;20211;-84
2021/11/16 12:42:41;;;;;;;7.72;6.30;;;7.60;99.90;;;;;;6255081;23;20166;-85
2021/11/16 12:45:10;;;;;;;8.18;6.68;;;7.60;99.90;;;;;;6253197;23;20672;-82
2021/11/16 12:47:58;;;;;;;7.00;5.80;;;7.70;99.90;;;;;;6249044;23;20203;-82
2021/11/16 12:50:26;;;;;;;7.35;6.18;;;7.80;99.90;;;;;;6248221;23;20172;-84
2021/11/16 12:52:54;;;;;;;7.10;6.10;;;7.80;99.90;;;;;;6249267;23;20212;-84
2021/11/16 12:55:25;;;;;;;10.45;7.30;;;7.80;99.90;;;;;;6248881;23;20187;-83
2021/11/16 12:57:53;;;;;;;8.57;5.93;;;7.70;99.90;;;;;;6248403;23;20200;-83